Time;durP1;ratioP1;P1;durP2;ratioP2;P2;SDS_P1;SDS_P2;PMS_P1;PMS_P2;Temp;Humidity;BMP_temperature;BMP_pressure;BME280_temperature;BME280_humidity;BME280_pressure;Samples;Min_cycle;Max_cycle;Signal;HPM_P1;HPM_P2
2022/10/10 00:00:24;;;;;;;4.70;2.53;;;8.80;99.90;;;;;;4995076;28;20260;-73
2022/10/10 00:02:49;;;;;;;3.37;2.17;;;8.80;99.90;;;;;;5004538;28;20199;-74
2022/10/10 00:05:15;;;;;;;2.57;1.93;;;8.80;99.90;;;;;;5000303;28;20186;-73
2022/10/10 00:07:40;;;;;;;3.07;1.80;;;8.70;99.90;;;;;;4997919;28;20165;-73
2022/10/10 00:10:06;;;;;;;4.83;2.20;;;8.70;99.90;;;;;;5007823;28;20233;-73
2022/10/10 00:12:32;;;;;;;4.03;2.03;;;8.70;99.90;;;;;;4999370;28;20716;-73
2022/10/10 00:14:57;;;;;;;5.30;2.90;;;8.60;99.90;;;;;;5008186;28;20543;-74
2022/10/10 00:17:23;;;;;;;4.47;2.30;;;8.60;99.90;;;;;;5008678;28;20589;-74
2022/10/10 00:19:49;;;;;;;2.67;2.33;;;8.60;99.90;;;;;;4999859;28;20241;-74
2022/10/10 00:22:14;;;;;;;4.60;2.33;;;8.60;99.90;;;;;;5008617;28;20595;-74
2022/10/10 00:24:40;;;;;;;5.00;2.93;;;8.50;99.90;;;;;;4998417;28;20280;-73
2022/10/10 00:27:06;;;;;;;6.03;2.13;;;8.50;99.90;;;;;;5010518;28;20197;-74
2022/10/10 00:29:31;;;;;;;4.63;2.30;;;8.40;99.90;;;;;;5016376;28;20186;-73
2022/10/10 00:31:57;;;;;;;4.70;2.80;;;8.40;99.90;;;;;;5005692;28;20182;-74
2022/10/10 00:34:22;;;;;;;2.50;1.90;;;8.40;99.90;;;;;;5018126;28;20201;-74
2022/10/10 00:36:48;;;;;;;2.53;1.93;;;8.40;99.90;;;;;;5008013;28;20181;-73
2022/10/10 00:39:13;;;;;;;4.57;1.97;;;8.40;99.90;;;;;;5011446;28;20208;-74
2022/10/10 00:41:39;;;;;;;3.03;2.47;;;8.30;99.90;;;;;;5013811;28;20187;-74
2022/10/10 00:44:11;;;;;;;3.20;2.27;;;8.30;99.90;;;;;;5002474;28;20253;-73
2022/10/10 00:46:37;;;;;;;4.50;2.50;;;8.20;99.90;;;;;;5014313;28;20248;-73
2022/10/10 00:49:07;;;;;;;3.30;2.13;;;8.20;99.90;;;;;;5006842;28;20922;-73
2022/10/10 00:51:33;;;;;;;4.50;1.80;;;8.20;99.90;;;;;;5009532;28;20417;-74
2022/10/10 00:54:01;;;;;;;3.63;2.37;;;8.20;99.90;;;;;;5017273;28;20501;-75
2022/10/10 00:56:32;;;;;;;1.80;1.70;;;8.20;99.90;;;;;;5002345;28;20185;-74
2022/10/10 00:59:02;;;;;;;3.70;2.87;;;8.10;99.90;;;;;;5013197;28;20421;-73
2022/10/10 01:01:28;;;;;;;4.13;2.03;;;8.10;99.90;;;;;;5010547;28;20423;-73
2022/10/10 01:03:59;;;;;;;4.00;2.07;;;8.10;99.90;;;;;;5003318;28;20547;-74
2022/10/10 01:06:24;;;;;;;4.63;2.27;;;8.10;99.90;;;;;;5013995;28;20667;-73
2022/10/10 01:08:50;;;;;;;4.73;2.33;;;8.10;99.90;;;;;;5004825;28;20419;-73
2022/10/10 01:11:40;;;;;;;4.07;2.53;;;8.10;99.90;;;;;;5011334;28;20232;-73
2022/10/10 01:14:20;;;;;;;2.13;1.70;;;8.10;99.90;;;;;;5009350;28;20514;-73
2022/10/10 01:16:55;;;;;;;3.43;2.80;;;8.10;99.90;;;;;;5012340;28;20422;-72
2022/10/10 01:19:30;;;;;;;5.73;2.63;;;8.00;99.90;;;;;;5006860;28;20781;-74
2022/10/10 01:22:20;;;;;;;3.93;2.23;;;8.00;99.90;;;;;;5012827;28;20425;-73
2022/10/10 01:25:26;;;;;;;8.50;2.30;;;8.10;99.90;;;;;;4998933;28;20440;-74
2022/10/10 01:28:09;;;;;;;3.60;2.00;;;8.00;99.90;;;;;;4989428;28;20403;-73
2022/10/10 01:30:35;;;;;;;7.83;2.50;;;7.90;99.90;;;;;;5004607;28;20422;-74
2022/10/10 01:33:11;;;;;;;2.70;2.47;;;7.90;99.90;;;;;;5012631;28;20842;-74
2022/10/10 01:35:54;;;;;;;5.83;2.40;;;7.90;99.90;;;;;;4985420;28;20196;-73
2022/10/10 01:38:19;;;;;;;5.60;2.70;;;7.90;99.90;;;;;;5006585;28;20504;-73
2022/10/10 01:41:01;;;;;;;4.60;1.80;;;7.90;99.90;;;;;;5007267;28;20593;-73
2022/10/10 01:43:29;;;;;;;4.30;2.37;;;7.90;99.90;;;;;;4997599;28;20200;-73
2022/10/10 01:45:54;;;;;;;3.47;2.50;;;7.90;99.90;;;;;;5008072;28;20520;-74
2022/10/10 01:48:27;;;;;;;2.53;2.30;;;7.80;99.90;;;;;;5004162;28;20490;-73
2022/10/10 01:51:31;;;;;;;4.20;2.03;;;7.80;99.90;;;;;;5000335;28;20166;-73
2022/10/10 01:54:19;;;;;;;3.30;1.80;;;7.80;99.90;;;;;;5003165;28;20416;-74
2022/10/10 01:57:18;;;;;;;4.40;3.10;;;7.70;99.90;;;;;;5001816;28;20422;-74
2022/10/10 01:59:49;;;;;;;4.00;2.17;;;7.80;99.90;;;;;;4988702;28;20488;-74
2022/10/10 02:02:55;;;;;;;4.27;2.40;;;7.80;99.90;;;;;;5010591;28;20421;-73
2022/10/10 02:05:42;;;;;;;5.37;2.60;;;7.70;99.90;;;;;;5015468;28;20774;-73
2022/10/10 02:08:19;;;;;;;3.23;2.27;;;7.80;99.90;;;;;;5006229;28;20406;-73
2022/10/10 02:10:55;;;;;;;2.87;2.17;;;7.80;99.90;;;;;;5005195;28;20430;-74
2022/10/10 02:13:25;;;;;;;2.33;1.83;;;7.80;99.90;;;;;;5010885;28;20397;-73
2022/10/10 02:15:54;;;;;;;6.90;2.30;;;7.80;99.90;;;;;;5001417;28;20457;-73
2022/10/10 02:18:24;;;;;;;6.23;2.93;;;7.80;99.90;;;;;;5006426;28;20453;-73
2022/10/10 02:20:51;;;;;;;3.10;1.80;;;7.80;99.90;;;;;;5002745;28;20442;-73
2022/10/10 02:23:19;;;;;;;3.60;2.20;;;7.80;99.90;;;;;;5014814;28;20821;-74
2022/10/10 02:25:50;;;;;;;2.33;2.13;;;7.80;99.90;;;;;;5011404;28;20437;-74
2022/10/10 02:28:31;;;;;;;4.17;3.00;;;7.80;99.90;;;;;;5006072;28;20424;-74
2022/10/10 02:31:01;;;;;;;3.53;2.37;;;7.80;99.90;;;;;;5002291;28;20491;-73
2022/10/10 02:33:36;;;;;;;3.57;2.33;;;7.70;99.90;;;;;;5014196;28;20420;-73
2022/10/10 02:36:02;;;;;;;3.23;1.90;;;7.70;99.90;;;;;;5003832;28;20461;-75
2022/10/10 02:38:29;;;;;;;3.50;3.20;;;7.70;99.90;;;;;;5017709;28;20424;-73
2022/10/10 02:40:57;;;;;;;5.57;2.87;;;7.70;99.90;;;;;;5003253;28;20434;-74
2022/10/10 02:43:22;;;;;;;2.33;2.13;;;7.70;99.90;;;;;;5012868;28;20448;-73
2022/10/10 02:45:48;;;;;;;6.20;2.67;;;7.70;99.90;;;;;;5008460;28;20434;-74
2022/10/10 02:48:14;;;;;;;7.10;2.87;;;7.70;99.90;;;;;;5013286;28;20614;-75
2022/10/10 02:50:39;;;;;;;3.40;2.60;;;7.70;99.90;;;;;;5007576;28;20422;-74
2022/10/10 02:53:05;;;;;;;8.80;2.63;;;7.60;99.90;;;;;;5021717;28;20215;-74
2022/10/10 02:55:30;;;;;;;4.07;2.20;;;7.70;99.90;;;;;;5006714;28;20215;-74
2022/10/10 02:57:56;;;;;;;3.23;2.07;;;7.70;99.90;;;;;;5011259;28;20265;-73
2022/10/10 03:00:21;;;;;;;3.53;2.40;;;7.70;99.90;;;;;;5006598;28;20244;-74
2022/10/10 03:02:47;;;;;;;3.37;2.10;;;7.70;99.90;;;;;;5002537;28;20335;-75
2022/10/10 03:05:12;;;;;;;3.87;2.70;;;7.60;99.90;;;;;;5013876;28;20340;-73
2022/10/10 03:07:38;;;;;;;3.20;2.17;;;7.60;99.90;;;;;;4994724;28;20198;-73
2022/10/10 03:10:07;;;;;;;4.60;2.20;;;7.60;99.90;;;;;;5002118;28;20498;-73
2022/10/10 03:12:33;;;;;;;4.23;2.77;;;7.60;99.90;;;;;;5012130;28;20484;-73
2022/10/10 03:14:59;;;;;;;4.30;2.17;;;7.60;99.90;;;;;;4995902;28;20540;-73
2022/10/10 03:17:24;;;;;;;2.63;1.80;;;7.60;99.90;;;;;;4997055;28;20424;-73
2022/10/10 03:19:50;;;;;;;7.50;2.60;;;7.50;99.90;;;;;;5006967;28;20173;-73
2022/10/10 03:22:16;;;;;;;3.80;2.80;;;7.50;99.90;;;;;;5001329;28;20173;-73
2022/10/10 03:24:41;;;;;;;2.90;2.50;;;7.50;99.90;;;;;;5000915;28;20208;-73
2022/10/10 03:27:07;;;;;;;2.27;1.90;;;7.50;99.90;;;;;;5009824;28;20177;-73
2022/10/10 03:29:32;;;;;;;3.13;2.00;;;7.50;99.90;;;;;;4997413;28;20272;-73
2022/10/10 03:31:58;;;;;;;4.13;2.40;;;7.40;99.90;;;;;;5007199;28;20170;-73
2022/10/10 03:34:23;;;;;;;6.37;3.20;;;7.40;99.90;;;;;;5003852;28;20653;-74
2022/10/10 03:36:49;;;;;;;5.43;3.07;;;7.40;99.90;;;;;;5000066;28;20235;-73
2022/10/10 03:39:14;;;;;;;2.80;2.10;;;7.40;99.90;;;;;;5010487;28;20180;-74
2022/10/10 03:41:40;;;;;;;3.47;1.70;;;7.30;99.90;;;;;;4996370;28;20249;-74
2022/10/10 03:44:05;;;;;;;4.07;2.10;;;7.30;99.90;;;;;;5004336;28;20608;-72
2022/10/10 03:46:31;;;;;;;3.30;2.20;;;7.30;99.90;;;;;;5003266;28;20169;-73
2022/10/10 03:48:56;;;;;;;3.30;2.27;;;7.30;99.90;;;;;;4997320;28;20715;-73
2022/10/10 03:51:22;;;;;;;3.03;2.80;;;7.30;99.90;;;;;;5009991;28;20205;-72
2022/10/10 03:53:47;;;;;;;3.80;2.33;;;7.30;99.90;;;;;;5006434;28;20179;-73
2022/10/10 03:56:13;;;;;;;3.83;2.30;;;7.20;99.90;;;;;;4999944;28;20224;-72
2022/10/10 03:58:38;;;;;;;5.80;3.57;;;7.20;99.90;;;;;;5000763;28;20597;-72
2022/10/10 04:01:04;;;;;;;3.30;2.30;;;7.20;99.90;;;;;;5009308;28;20168;-74
2022/10/10 04:03:30;;;;;;;4.47;2.30;;;7.10;99.90;;;;;;4996150;28;20205;-74
2022/10/10 04:05:56;;;;;;;4.30;2.47;;;7.20;99.90;;;;;;5008276;28;20201;-74
2022/10/10 04:08:22;;;;;;;2.90;2.03;;;7.20;99.90;;;;;;5001960;28;20771;-72
2022/10/10 04:10:49;;;;;;;6.80;2.57;;;7.10;99.90;;;;;;4996468;28;20346;-73
2022/10/10 04:13:15;;;;;;;3.17;2.40;;;7.10;99.90;;;;;;5006917;28;20955;-73
2022/10/10 04:15:40;;;;;;;4.90;2.63;;;7.10;99.90;;;;;;4992495;28;20466;-73
2022/10/10 04:18:06;;;;;;;3.03;2.63;;;7.10;99.90;;;;;;5028264;22;20226;-68
2022/10/10 04:20:32;;;;;;;5.10;2.93;;;7.10;99.90;;;;;;5030122;28;20168;-68
2022/10/10 04:22:57;;;;;;;2.10;1.90;;;7.10;99.90;;;;;;5032453;28;20287;-70
2022/10/10 04:25:23;;;;;;;3.67;2.30;;;7.10;99.90;;;;;;5028931;28;20246;-69
2022/10/10 04:27:49;;;;;;;2.37;2.17;;;7.10;99.90;;;;;;5020427;28;20192;-70
2022/10/10 04:30:15;;;;;;;5.20;3.17;;;7.00;99.90;;;;;;5032370;28;20408;-69
2022/10/10 04:32:40;;;;;;;3.73;2.77;;;7.00;99.90;;;;;;5031946;28;20202;-69
2022/10/10 04:35:06;;;;;;;8.33;2.43;;;7.00;99.90;;;;;;5031540;28;20467;-69
2022/10/10 04:37:33;;;;;;;8.77;3.17;;;6.90;99.90;;;;;;5015117;28;20206;-69
2022/10/10 04:39:58;;;;;;;2.80;2.53;;;6.90;99.90;;;;;;5031585;28;20402;-69
2022/10/10 04:42:24;;;;;;;4.10;2.60;;;6.90;99.90;;;;;;5031483;28;20421;-68
2022/10/10 04:44:49;;;;;;;5.93;2.90;;;6.80;99.90;;;;;;5032804;28;20172;-70
2022/10/10 04:47:15;;;;;;;4.53;2.63;;;6.80;99.90;;;;;;5033049;28;20199;-69
2022/10/10 04:49:41;;;;;;;5.47;3.50;;;6.80;99.90;;;;;;5029625;28;20176;-70
2022/10/10 04:52:10;;;;;;;4.27;2.50;;;6.70;99.90;;;;;;5028724;28;20410;-69
2022/10/10 04:54:36;;;;;;;4.77;2.57;;;6.70;99.90;;;;;;5031855;28;20168;-69
2022/10/10 04:57:02;;;;;;;4.37;3.03;;;6.70;99.90;;;;;;5027363;28;20415;-69
2022/10/10 04:59:27;;;;;;;2.90;2.63;;;6.60;99.90;;;;;;5032419;28;20182;-69
2022/10/10 05:01:53;;;;;;;6.10;3.40;;;6.60;99.90;;;;;;5034119;28;20413;-69
2022/10/10 05:04:18;;;;;;;3.47;2.30;;;6.60;99.90;;;;;;5032545;28;20191;-69
2022/10/10 05:06:44;;;;;;;6.03;3.90;;;6.60;99.90;;;;;;5031524;28;20225;-69
2022/10/10 05:09:09;;;;;;;6.23;3.33;;;6.60;99.90;;;;;;5029626;28;20192;-68
2022/10/10 05:11:35;;;;;;;3.60;3.00;;;6.60;99.90;;;;;;5030496;28;20222;-69
2022/10/10 05:14:01;;;;;;;3.47;2.93;;;6.60;99.90;;;;;;5029682;28;20670;-70
2022/10/10 05:16:27;;;;;;;6.47;2.83;;;6.50;99.90;;;;;;5034978;28;20168;-69
2022/10/10 05:18:53;;;;;;;3.13;2.83;;;6.50;99.90;;;;;;5034903;28;20456;-69
2022/10/10 05:21:18;;;;;;;4.60;3.00;;;6.50;99.90;;;;;;5022912;28;20219;-68
2022/10/10 05:23:44;;;;;;;7.90;3.17;;;6.50;99.90;;;;;;5035137;28;20555;-69
2022/10/10 05:26:09;;;;;;;4.97;3.47;;;6.50;99.90;;;;;;5035039;28;20229;-70
2022/10/10 05:28:35;;;;;;;5.60;2.70;;;6.50;99.90;;;;;;5034939;28;20191;-70
2022/10/10 05:31:02;;;;;;;6.07;2.63;;;6.50;99.90;;;;;;5014163;28;20205;-70
2022/10/10 05:33:28;;;;;;;4.90;2.70;;;6.50;99.90;;;;;;5006479;28;20435;-70
2022/10/10 05:36:04;;;;;;;7.20;3.50;;;6.60;99.90;;;;;;5002474;28;20497;-69
2022/10/10 05:38:29;;;;;;;6.40;2.87;;;6.60;99.90;;;;;;5015679;28;20320;-70
2022/10/10 05:40:55;;;;;;;3.47;2.47;;;6.70;99.90;;;;;;5028569;28;21048;-69
2022/10/10 05:43:20;;;;;;;3.17;2.33;;;6.70;99.90;;;;;;5034690;28;20197;-69
2022/10/10 05:45:46;;;;;;;5.00;3.30;;;6.70;99.90;;;;;;5020633;28;20165;-69
2022/10/10 05:48:11;;;;;;;4.20;2.93;;;6.70;99.90;;;;;;5034499;28;20199;-69
2022/10/10 05:50:39;;;;;;;5.10;3.40;;;6.80;99.90;;;;;;5034836;28;20183;-69
2022/10/10 05:53:05;;;;;;;9.20;3.50;;;6.80;99.90;;;;;;5034393;28;20272;-69
2022/10/10 05:55:31;;;;;;;3.93;2.63;;;6.80;99.90;;;;;;5034078;28;20406;-69
2022/10/10 05:57:57;;;;;;;3.60;2.70;;;6.80;99.90;;;;;;5034173;28;20457;-68
2022/10/10 06:00:22;;;;;;;5.07;3.50;;;6.90;99.90;;;;;;5034361;28;20422;-72
2022/10/10 06:02:48;;;;;;;4.87;3.33;;;6.90;99.90;;;;;;5034251;28;20187;-68
2022/10/10 06:05:14;;;;;;;2.80;2.60;;;7.00;99.90;;;;;;5034146;28;20168;-70
2022/10/10 06:07:39;;;;;;;6.10;2.90;;;7.00;99.90;;;;;;5029511;28;20195;-70
2022/10/10 06:10:05;;;;;;;7.30;3.03;;;7.10;99.90;;;;;;4996358;28;20181;-69
2022/10/10 06:12:31;;;;;;;6.20;2.67;;;7.20;99.90;;;;;;5007821;28;20176;-69
2022/10/10 06:14:56;;;;;;;4.47;2.80;;;7.30;99.90;;;;;;5028253;28;20904;-70
2022/10/10 06:17:22;;;;;;;4.20;2.90;;;7.50;99.90;;;;;;5034054;28;20207;-68
2022/10/10 06:19:48;;;;;;;3.60;3.30;;;7.60;99.90;;;;;;5022052;28;20174;-68
2022/10/10 06:22:13;;;;;;;9.50;3.03;;;7.70;99.90;;;;;;5032420;28;20179;-68
2022/10/10 06:24:39;;;;;;;3.93;2.63;;;7.90;99.90;;;;;;5033486;28;20239;-68
2022/10/10 06:27:04;;;;;;;6.07;3.70;;;8.10;99.90;;;;;;5032089;28;20213;-68
2022/10/10 06:29:30;;;;;;;8.43;2.90;;;8.20;99.90;;;;;;5032904;28;20187;-68
2022/10/10 06:31:55;;;;;;;5.30;2.60;;;8.20;99.90;;;;;;5033250;28;20181;-68
2022/10/10 06:34:21;;;;;;;5.53;2.60;;;8.10;99.90;;;;;;5016002;28;20667;-68
2022/10/10 06:36:49;;;;;;;4.03;2.43;;;8.10;99.90;;;;;;5033504;28;20211;-68
2022/10/10 06:39:15;;;;;;;2.93;2.70;;;8.10;99.90;;;;;;5034175;28;20605;-69
2022/10/10 06:41:40;;;;;;;5.80;3.50;;;8.10;99.90;;;;;;5033640;28;20406;-69
2022/10/10 06:44:06;;;;;;;3.73;3.23;;;8.00;99.90;;;;;;5030752;28;20245;-69
2022/10/10 06:46:36;;;;;;;6.50;3.20;;;8.20;99.90;;;;;;5025011;28;20530;-68
2022/10/10 06:49:04;;;;;;;8.57;4.90;;;8.40;99.90;;;;;;5034955;28;20423;-69
2022/10/10 06:51:30;;;;;;;3.60;2.30;;;8.70;99.90;;;;;;5033319;28;20518;-69
2022/10/10 06:53:57;;;;;;;4.30;3.17;;;9.20;99.90;;;;;;5033830;28;20511;-69
2022/10/10 06:56:23;;;;;;;7.37;3.57;;;9.30;99.90;;;;;;5033471;28;20790;-69
2022/10/10 06:58:49;;;;;;;2.83;1.80;;;9.60;99.90;;;;;;5033141;28;20506;-67
2022/10/10 07:01:17;;;;;;;6.00;2.37;;;10.20;99.90;;;;;;5033012;28;20847;-67
2022/10/10 07:03:43;;;;;;;4.33;2.43;;;10.80;99.90;;;;;;5033655;28;20275;-69
2022/10/10 07:06:10;;;;;;;3.63;3.07;;;10.90;99.90;;;;;;5033046;28;20844;-69
2022/10/10 07:08:37;;;;;;;5.80;2.93;;;10.80;99.90;;;;;;5033564;28;20203;-69
2022/10/10 07:11:03;;;;;;;2.67;2.30;;;11.20;99.90;;;;;;5033302;28;20411;-70
2022/10/10 07:13:29;;;;;;;4.20;2.67;;;11.30;99.90;;;;;;5031153;28;20782;-70
2022/10/10 07:15:54;;;;;;;4.77;2.87;;;11.20;99.90;;;;;;5018618;28;20421;-69
2022/10/10 07:18:20;;;;;;;5.33;2.93;;;11.30;99.90;;;;;;5030214;28;20210;-69
2022/10/10 07:20:46;;;;;;;5.23;2.30;;;12.20;99.90;;;;;;5020250;28;20166;-69
2022/10/10 07:23:12;;;;;;;4.33;2.40;;;11.90;99.90;;;;;;5023048;28;20215;-69
2022/10/10 07:25:39;;;;;;;5.40;2.43;;;12.40;99.90;;;;;;5031705;28;20416;-69
2022/10/10 07:28:06;;;;;;;3.33;2.50;;;12.90;99.90;;;;;;5032869;28;20537;-68
2022/10/10 07:30:32;;;;;;;3.40;2.70;;;12.20;99.90;;;;;;5033052;28;20404;-68
2022/10/10 07:32:58;;;;;;;3.30;3.00;;;12.10;99.90;;;;;;5021011;28;20424;-68
2022/10/10 07:35:24;;;;;;;3.20;2.77;;;12.00;99.90;;;;;;5027866;28;20465;-68
2022/10/10 07:37:53;;;;;;;3.87;2.53;;;11.50;99.90;;;;;;5032081;28;20213;-68
2022/10/10 07:40:19;;;;;;;6.20;2.40;;;11.40;99.90;;;;;;5032752;28;20406;-67
2022/10/10 07:42:44;;;;;;;6.73;4.47;;;11.40;99.90;;;;;;5033054;28;20513;-68
2022/10/10 07:45:11;;;;;;;3.70;2.70;;;11.20;99.90;;;;;;5033064;28;20226;-68
2022/10/10 07:47:37;;;;;;;4.23;2.00;;;11.30;99.90;;;;;;5033431;28;20246;-68
2022/10/10 07:50:05;;;;;;;3.07;2.37;;;11.40;99.90;;;;;;5032841;28;20446;-68
2022/10/10 07:52:31;;;;;;;4.80;2.00;;;11.00;99.90;;;;;;5032937;28;20470;-68
2022/10/10 07:54:56;;;;;;;2.83;2.20;;;11.10;99.90;;;;;;5032398;28;20814;-68
2022/10/10 07:57:22;;;;;;;4.80;2.80;;;11.00;99.90;;;;;;5032282;28;20204;-68
2022/10/10 07:59:47;;;;;;;4.43;2.57;;;11.20;99.90;;;;;;5027221;28;20312;-69
2022/10/10 08:02:13;;;;;;;4.93;3.40;;;10.90;99.90;;;;;;5013251;28;20204;-69
2022/10/10 08:04:39;;;;;;;3.77;2.23;;;11.00;99.90;;;;;;5014011;28;20192;-68
2022/10/10 08:07:05;;;;;;;4.50;2.63;;;11.10;99.90;;;;;;5011437;28;20179;-69
2022/10/10 08:09:31;;;;;;;4.33;2.90;;;11.20;99.90;;;;;;5019616;28;20173;-68
2022/10/10 08:11:57;;;;;;;3.07;2.37;;;11.30;99.90;;;;;;5019972;28;20902;-68
2022/10/10 08:14:22;;;;;;;6.90;3.27;;;11.40;99.90;;;;;;5020848;28;20180;-68
2022/10/10 08:16:48;;;;;;;4.20;2.60;;;11.40;99.90;;;;;;5026114;28;20418;-69
2022/10/10 08:19:13;;;;;;;4.80;3.20;;;11.20;99.90;;;;;;5018918;28;20227;-69
2022/10/10 08:21:39;;;;;;;4.40;3.00;;;11.50;99.90;;;;;;5000637;28;20179;-68
2022/10/10 08:24:05;;;;;;;4.20;2.33;;;12.40;99.90;;;;;;5014137;28;20193;-68
2022/10/10 08:26:30;;;;;;;3.87;2.63;;;13.70;99.90;;;;;;5008478;28;20644;-68
2022/10/10 08:28:56;;;;;;;6.33;3.00;;;14.60;99.90;;;;;;5001595;28;20488;-68
2022/10/10 08:31:21;;;;;;;5.37;2.40;;;14.90;99.90;;;;;;5012075;28;20633;-68
2022/10/10 08:33:49;;;;;;;6.03;3.17;;;14.90;99.90;;;;;;4997346;28;20177;-68
2022/10/10 08:36:19;;;;;;;3.97;2.30;;;14.30;99.90;;;;;;4998697;28;20174;-69
2022/10/10 08:38:46;;;;;;;3.23;2.27;;;14.20;99.90;;;;;;5003812;28;20462;-68
2022/10/10 08:41:28;;;;;;;2.83;2.50;;;13.90;99.90;;;;;;5003087;28;20413;-69
2022/10/10 08:43:59;;;;;;;3.47;2.13;;;14.10;99.90;;;;;;5014424;28;20456;-68
2022/10/10 08:46:43;;;;;;;5.93;2.00;;;14.80;99.90;;;;;;5026227;28;20409;-68
2022/10/10 08:49:37;;;;;;;3.37;2.33;;;15.20;99.90;;;;;;5017069;28;20536;-68
2022/10/10 08:52:26;;;;;;;3.30;2.10;;;15.20;99.90;;;;;;4999774;28;20435;-68
2022/10/10 08:54:53;;;;;;;3.93;2.00;;;15.80;99.90;;;;;;5004673;28;20409;-68
2022/10/10 08:57:43;;;;;;;3.10;2.80;;;16.00;99.90;;;;;;5001387;28;20474;-68
2022/10/10 09:00:15;;;;;;;3.43;2.10;;;16.60;99.90;;;;;;5001596;28;20892;-68
2022/10/10 09:02:51;;;;;;;6.90;2.40;;;16.40;99.90;;;;;;5002082;28;20423;-68
2022/10/10 09:05:20;;;;;;;5.17;2.40;;;17.20;99.90;;;;;;4996368;28;20409;-67
2022/10/10 09:08:07;;;;;;;3.37;2.40;;;17.50;99.90;;;;;;5004995;28;20428;-68
2022/10/10 09:10:55;;;;;;;3.70;2.17;;;17.40;99.90;;;;;;5004829;28;20396;-68
2022/10/10 09:13:24;;;;;;;3.83;2.47;;;16.90;99.90;;;;;;5007213;28;20429;-69
2022/10/10 09:15:57;;;;;;;5.93;2.80;;;16.70;99.90;;;;;;5003249;28;20427;-68
2022/10/10 09:18:31;;;;;;;2.60;1.90;;;16.00;99.90;;;;;;5005865;28;20531;-69
2022/10/10 09:21:17;;;;;;;3.57;3.07;;;15.60;99.90;;;;;;5032525;28;20421;-69
2022/10/10 09:23:59;;;;;;;5.60;2.37;;;16.30;99.90;;;;;;5025944;28;20451;-68
2022/10/10 09:26:28;;;;;;;3.70;1.93;;;15.60;99.90;;;;;;5028724;28;20456;-67
2022/10/10 09:29:14;;;;;;;3.80;2.40;;;15.70;99.90;;;;;;5028057;28;20531;-68
2022/10/10 09:31:46;;;;;;;3.20;2.20;;;15.40;99.90;;;;;;5005639;28;20472;-68
2022/10/10 09:34:19;;;;;;;3.93;2.50;;;15.60;99.90;;;;;;5034269;28;20505;-70
2022/10/10 09:36:46;;;;;;;3.00;2.40;;;15.50;99.90;;;;;;5029423;28;20489;-69
2022/10/10 09:39:31;;;;;;;4.07;2.33;;;15.20;99.90;;;;;;5029806;28;20463;-70
2022/10/10 09:42:02;;;;;;;8.17;3.20;;;15.00;99.90;;;;;;5023252;28;20412;-69
2022/10/10 09:44:29;;;;;;;3.80;2.60;;;15.10;99.90;;;;;;5025104;28;20546;-69
2022/10/10 09:46:54;;;;;;;3.90;2.83;;;15.50;99.90;;;;;;5020314;28;20429;-70
2022/10/10 09:49:20;;;;;;;3.50;2.40;;;15.30;99.90;;;;;;5035382;28;20505;-71
2022/10/10 09:51:47;;;;;;;5.60;4.67;;;15.00;99.90;;;;;;5039625;28;20167;-69
2022/10/10 09:54:16;;;;;;;13.10;7.43;;;14.80;99.90;;;;;;5040971;28;20240;-70
2022/10/10 09:56:55;;;;;;;7.93;6.17;;;14.90;99.90;;;;;;5030805;28;20417;-70
2022/10/10 09:59:41;;;;;;;4.27;2.90;;;15.20;99.90;;;;;;5039446;28;20418;-70
2022/10/10 10:02:18;;;;;;;3.27;2.47;;;15.20;99.90;;;;;;5032989;28;20420;-69
2022/10/10 10:04:46;;;;;;;2.10;1.83;;;15.30;99.90;;;;;;5031662;28;20543;-69
2022/10/10 10:07:18;;;;;;;5.13;2.43;;;15.40;99.90;;;;;;5036385;28;20444;-71
2022/10/10 10:09:58;;;;;;;4.53;2.00;;;15.10;99.90;;;;;;5037394;28;20408;-70
2022/10/10 10:12:30;;;;;;;2.17;2.00;;;15.00;99.90;;;;;;5037321;28;20403;-69
2022/10/10 10:15:15;;;;;;;2.70;2.23;;;14.60;99.90;;;;;;5026928;28;20794;-69
2022/10/10 10:17:41;;;;;;;4.13;2.10;;;14.60;99.90;;;;;;5025509;28;20450;-67
2022/10/10 10:20:28;;;;;;;30.40;17.83;;;14.80;99.90;;;;;;5022304;28;20436;-67
2022/10/10 10:22:54;;;;;;;3.93;2.67;;;14.70;99.90;;;;;;5034262;28;20212;-68
2022/10/10 10:25:34;;;;;;;2.70;2.00;;;14.70;99.90;;;;;;5033404;28;20779;-67
2022/10/10 10:28:10;;;;;;;4.47;2.50;;;14.80;99.90;;;;;;5033364;28;20418;-67
2022/10/10 10:30:41;;;;;;;2.53;2.00;;;14.90;99.90;;;;;;5027826;28;20415;-67
2022/10/10 10:33:25;;;;;;;5.10;2.40;;;15.00;99.90;;;;;;5031191;28;20423;-69
2022/10/10 10:36:24;;;;;;;3.40;2.00;;;15.10;99.90;;;;;;5033105;28;20708;-67
2022/10/10 10:38:59;;;;;;;2.70;1.93;;;15.20;99.90;;;;;;5026188;28;20450;-67
2022/10/10 10:41:28;;;;;;;3.27;1.90;;;15.50;99.90;;;;;;5001694;28;20428;-69
2022/10/10 10:44:23;;;;;;;2.37;2.13;;;15.70;99.90;;;;;;5033005;28;20983;-67
2022/10/10 10:47:03;;;;;;;2.90;2.00;;;15.70;99.90;;;;;;5031082;28;20411;-68
2022/10/10 10:49:51;;;;;;;2.50;2.00;;;15.40;99.90;;;;;;5015245;28;20413;-68
2022/10/10 10:52:54;;;;;;;5.83;2.30;;;15.30;99.90;;;;;;5012587;28;20504;-68
2022/10/10 10:55:49;;;;;;;3.63;2.23;;;15.20;99.90;;;;;;5018846;28;20434;-68
2022/10/10 10:58:34;;;;;;;3.73;2.53;;;15.40;99.90;;;;;;5033001;28;20436;-68
2022/10/10 11:01:04;;;;;;;3.37;2.20;;;15.60;99.90;;;;;;5023910;28;20416;-69
2022/10/10 11:04:02;;;;;;;2.93;2.13;;;15.70;99.90;;;;;;5032419;28;20456;-69
2022/10/10 11:06:41;;;;;;;6.60;2.77;;;15.70;99.90;;;;;;5021175;28;20638;-68
2022/10/10 11:09:15;;;;;;;2.47;2.00;;;15.70;99.90;;;;;;5030583;28;20416;-68
2022/10/10 11:11:48;;;;;;;2.20;1.93;;;15.80;99.90;;;;;;5017975;28;20499;-69
2022/10/10 11:14:22;;;;;;;4.03;2.40;;;15.90;99.90;;;;;;5016497;28;20610;-69
2022/10/10 11:17:10;;;;;;;3.30;2.20;;;15.80;99.90;;;;;;5027614;28;20414;-69
2022/10/10 11:19:55;;;;;;;2.50;2.30;;;15.80;99.90;;;;;;5007228;28;20437;-68
2022/10/10 11:22:32;;;;;;;4.20;2.30;;;15.60;99.90;;;;;;5012192;28;20520;-68
2022/10/10 11:25:05;;;;;;;2.73;1.80;;;15.70;99.90;;;;;;5023079;28;20467;-68
2022/10/10 11:27:41;;;;;;;3.13;2.50;;;15.80;99.90;;;;;;5032608;28;20418;-68
2022/10/10 11:30:19;;;;;;;4.43;1.77;;;15.70;99.90;;;;;;5023849;28;20804;-68
2022/10/10 11:33:09;;;;;;;2.90;1.93;;;15.80;99.90;;;;;;5013841;28;20416;-68
2022/10/10 11:35:39;;;;;;;1.77;1.67;;;15.80;99.90;;;;;;5012919;28;20439;-68
2022/10/10 11:38:18;;;;;;;3.67;2.77;;;15.90;99.90;;;;;;5017384;28;20443;-68
2022/10/10 11:40:56;;;;;;;3.10;2.20;;;15.80;99.90;;;;;;5027378;28;20857;-68
2022/10/10 11:43:39;;;;;;;2.70;2.10;;;15.80;99.90;;;;;;5008871;28;20464;-69
2022/10/10 11:46:20;;;;;;;4.13;2.23;;;15.80;99.90;;;;;;5018369;28;20458;-68
2022/10/10 11:49:08;;;;;;;2.03;1.63;;;15.80;99.90;;;;;;5032087;28;20511;-68
2022/10/10 11:51:54;;;;;;;2.63;1.70;;;16.00;99.90;;;;;;4999041;28;20511;-69
2022/10/10 11:54:32;;;;;;;3.03;2.53;;;16.10;99.90;;;;;;4980402;28;20745;-68
2022/10/10 11:57:03;;;;;;;9.77;2.43;;;16.00;99.90;;;;;;5011897;28;20420;-68
2022/10/10 11:59:40;;;;;;;2.53;2.33;;;16.20;99.90;;;;;;5015960;28;20413;-68
2022/10/10 12:02:17;;;;;;;4.30;2.67;;;16.30;99.90;;;;;;5011735;28;20862;-68
2022/10/10 12:04:43;;;;;;;3.27;2.20;;;16.40;99.90;;;;;;5026046;28;20451;-68
2022/10/10 12:07:46;;;;;;;2.60;2.23;;;16.50;99.90;;;;;;5015392;28;20441;-68
2022/10/10 12:10:42;;;;;;;3.60;2.23;;;16.40;99.90;;;;;;5024928;28;20667;-68
2022/10/10 12:13:34;;;;;;;2.90;2.20;;;16.50;99.90;;;;;;5016764;28;20432;-69
2022/10/10 12:16:09;;;;;;;2.30;1.80;;;16.60;99.90;;;;;;5011556;28;20765;-68
2022/10/10 12:18:42;;;;;;;2.33;2.13;;;16.50;99.90;;;;;;5026374;28;20450;-68
2022/10/10 12:21:10;;;;;;;2.83;2.10;;;16.60;99.90;;;;;;5029359;28;20530;-68
2022/10/10 12:23:36;;;;;;;2.40;2.20;;;16.70;99.90;;;;;;5030668;28;20844;-68
2022/10/10 12:26:02;;;;;;;3.80;2.50;;;16.80;99.90;;;;;;5016373;28;20472;-68
2022/10/10 12:28:47;;;;;;;2.70;2.50;;;16.80;99.90;;;;;;5015385;28;20903;-69
2022/10/10 12:31:13;;;;;;;5.77;2.73;;;16.80;99.90;;;;;;5011937;28;20190;-68
2022/10/10 12:33:40;;;;;;;4.57;2.40;;;16.80;99.90;;;;;;5027290;28;20424;-68
2022/10/10 12:36:18;;;;;;;4.80;2.03;;;16.80;99.90;;;;;;5023847;28;20186;-68
2022/10/10 12:39:09;;;;;;;3.10;2.10;;;16.80;99.90;;;;;;5018810;28;20467;-70
2022/10/10 12:41:55;;;;;;;2.73;2.50;;;17.00;99.90;;;;;;4995919;28;20423;-68
2022/10/10 12:44:44;;;;;;;2.80;2.50;;;17.00;99.90;;;;;;5007081;28;20457;-68
2022/10/10 12:47:12;;;;;;;4.67;2.10;;;16.90;99.90;;;;;;5020179;28;20451;-68
2022/10/10 12:49:50;;;;;;;3.40;2.47;;;16.90;99.90;;;;;;5030827;28;20406;-69
2022/10/10 12:52:21;;;;;;;2.60;2.10;;;16.90;99.90;;;;;;5031235;28;20914;-67
2022/10/10 12:54:47;;;;;;;4.70;2.00;;;16.90;99.90;;;;;;5031451;28;20456;-67
2022/10/10 12:57:28;;;;;;;2.70;2.10;;;17.00;99.90;;;;;;5001601;28;20966;-68
2022/10/10 12:59:54;;;;;;;3.13;2.07;;;17.00;99.90;;;;;;4992412;28;20414;-68
2022/10/10 13:02:25;;;;;;;2.83;2.03;;;17.20;99.90;;;;;;5002462;28;20899;-68
2022/10/10 13:04:59;;;;;;;6.97;2.53;;;17.30;99.90;;;;;;4994530;28;20245;-68
2022/10/10 13:07:25;;;;;;;2.20;1.87;;;17.30;99.90;;;;;;5003512;28;20950;-68
2022/10/10 13:09:53;;;;;;;3.97;2.17;;;17.20;99.90;;;;;;5002689;28;20413;-69
2022/10/10 13:12:28;;;;;;;2.60;2.20;;;17.20;99.90;;;;;;5001422;28;20411;-68